Aérodrome :
LOGIN :

S'inscrire | Disclaimer

   EN    FR    IT 

 










Légende :    VFR   VFR Marginal   IFR   IFR Intensif   IFR Très Intensif
Visi : 
Plafond : 
>= 8 km
>= 3000ft
5 à 8 km
1000 à 3000 ft
1500m à 5 km
500 à 1000 ft
800 à 1500m
200 à 500 ft
< 800m
< 200 ft
Symboles :   Orages  Brouillard  Fortes neiges  Fortes précipitations  Vent > 20 kt
SIGMETs :   Divers  Orages  Givrage  Turbulence  Onde Orograph.  Cendres Volcan.






- Altitude de l'aérodrome : 405 ft
- Code IATA : JMK


LGMK - Mikonos

DERNIER METAR :
  • 131650Z 11007KT 9999 -RA SCT010 FEW018TCU OVC025 17/15 Q1010

METARs EXPIRÉS :
  • 131550Z 10014KT 9999 FEW018TCU BKN025 17/15 Q1010
  • 131520Z 10014KT 9999 FEW018TCU BKN025 16/14 Q1010
  • 131450Z 09010G20KT 9000 FEW018TCU BKN025 16/14 Q1010
  • 131420Z 10013G23KT 9999 FEW018TCU BKN025 16/14 Q1010

TAF TAF LGMK
Valide du 13 à 15h jusqu'au 14 à 00h UTC


131400Z 1315/1324 14015G25KT 9999 SCT010 BKN020
PROB40
TEMPO 1315/1324 5000 RA
PROB40
TEMPO 1315/1321 3000 TSRA SCT005 FEW018CB BKN020
TEMPO 1315/1318 25012KT



MET'MAP, la Météo Aéronautique d'un coup d'oeil ! - Copyright ORBIFLY Décembre 2007 - Disclaimer

ORBIFLY MET'MAP TEAM :

Programmation & Développement : Alexandra Zaïnal
Conception & Développement : Baudouin d'Aumeries
Co-Programmation & Développement : Marc-Olivier Méhu
Soutien technique & logistique : Manuel Goepfert

Contact : metmap@orbifly.com




SOURCES & CREDITS :

   NOAA